sensor_id;sensor_type;location;lat;lon;timestamp;P1;durP1;ratioP1;P2;durP2;ratioP2
7703;SDS011;3894;49.700;10.770;2023-05-01T00:00:07;7.20;;;3.00;;
7703;SDS011;3894;49.700;10.770;2023-05-01T00:02:35;7.80;;;3.10;;
7703;SDS011;3894;49.700;10.770;2023-05-01T00:05:02;8.25;;;3.42;;
7703;SDS011;3894;49.700;10.770;2023-05-01T00:07:28;7.10;;;3.20;;
7703;SDS011;3894;49.700;10.770;2023-05-01T00:09:55;7.25;;;2.90;;
7703;SDS011;3894;49.700;10.770;2023-05-01T00:12:22;8.30;;;2.78;;
7703;SDS011;3894;49.700;10.770;2023-05-01T00:14:48;9.82;;;3.63;;
7703;SDS011;3894;49.700;10.770;2023-05-01T00:17:13;8.45;;;3.00;;
7703;SDS011;3894;49.700;10.770;2023-05-01T00:19:39;8.70;;;2.90;;
7703;SDS011;3894;49.700;10.770;2023-05-01T00:22:05;6.60;;;2.72;;
7703;SDS011;3894;49.700;10.770;2023-05-01T00:24:31;6.82;;;2.30;;
7703;SDS011;3894;49.700;10.770;2023-05-01T00:26:56;7.97;;;3.60;;
7703;SDS011;3894;49.700;10.770;2023-05-01T00:29:22;7.80;;;2.75;;
7703;SDS011;3894;49.700;10.770;2023-05-01T00:31:47;8.60;;;3.13;;
7703;SDS011;3894;49.700;10.770;2023-05-01T00:34:13;7.57;;;3.13;;
7703;SDS011;3894;49.700;10.770;2023-05-01T00:36:38;7.10;;;2.90;;
7703;SDS011;3894;49.700;10.770;2023-05-01T00:39:05;7.20;;;3.10;;
7703;SDS011;3894;49.700;10.770;2023-05-01T00:41:32;6.88;;;3.03;;
7703;SDS011;3894;49.700;10.770;2023-05-01T00:43:59;8.85;;;3.10;;
7703;SDS011;3894;49.700;10.770;2023-05-01T00:46:24;8.13;;;2.80;;
7703;SDS011;3894;49.700;10.770;2023-05-01T00:48:51;8.02;;;3.28;;
7703;SDS011;3894;49.700;10.770;2023-05-01T00:51:17;6.10;;;2.67;;
7703;SDS011;3894;49.700;10.770;2023-05-01T00:57:07;7.43;;;2.50;;
7703;SDS011;3894;49.700;10.770;2023-05-01T00:59:33;7.47;;;2.78;;
7703;SDS011;3894;49.700;10.770;2023-05-01T01:02:04;5.93;;;2.65;;
7703;SDS011;3894;49.700;10.770;2023-05-01T01:04:30;8.38;;;3.08;;
7703;SDS011;3894;49.700;10.770;2023-05-01T01:14:49;7.03;;;2.80;;
7703;SDS011;3894;49.700;10.770;2023-05-01T01:17:41;7.20;;;2.95;;
7703;SDS011;3894;49.700;10.770;2023-05-01T01:20:34;8.57;;;2.80;;
7703;SDS011;3894;49.700;10.770;2023-05-01T01:23:23;6.13;;;2.90;;
7703;SDS011;3894;49.700;10.770;2023-05-01T01:31:59;6.28;;;2.20;;
7703;SDS011;3894;49.700;10.770;2023-05-01T01:34:47;7.03;;;3.05;;
7703;SDS011;3894;49.700;10.770;2023-05-01T01:37:47;6.28;;;2.33;;
7703;SDS011;3894;49.700;10.770;2023-05-01T01:40:20;9.07;;;2.88;;
7703;SDS011;3894;49.700;10.770;2023-05-01T01:42:54;8.23;;;2.63;;
7703;SDS011;3894;49.700;10.770;2023-05-01T01:45:37;5.90;;;2.20;;
7703;SDS011;3894;49.700;10.770;2023-05-01T01:48:05;7.13;;;2.30;;
7703;SDS011;3894;49.700;10.770;2023-05-01T01:50:36;8.10;;;2.90;;
7703;SDS011;3894;49.700;10.770;2023-05-01T01:53:04;6.38;;;2.35;;
7703;SDS011;3894;49.700;10.770;2023-05-01T01:55:33;7.93;;;3.03;;
7703;SDS011;3894;49.700;10.770;2023-05-01T01:58:02;6.82;;;2.22;;
7703;SDS011;3894;49.700;10.770;2023-05-01T02:00:29;5.95;;;2.47;;
7703;SDS011;3894;49.700;10.770;2023-05-01T02:02:56;7.80;;;2.42;;
7703;SDS011;3894;49.700;10.770;2023-05-01T02:05:23;5.78;;;2.38;;
7703;SDS011;3894;49.700;10.770;2023-05-01T02:07:51;7.13;;;2.40;;
7703;SDS011;3894;49.700;10.770;2023-05-01T02:10:18;8.38;;;2.50;;
7703;SDS011;3894;49.700;10.770;2023-05-01T02:12:45;5.65;;;2.33;;
7703;SDS011;3894;49.700;10.770;2023-05-01T02:15:14;5.32;;;2.70;;
7703;SDS011;3894;49.700;10.770;2023-05-01T02:17:42;7.28;;;2.67;;
7703;SDS011;3894;49.700;10.770;2023-05-01T02:20:09;7.20;;;2.63;;
7703;SDS011;3894;49.700;10.770;2023-05-01T02:22:36;8.45;;;2.92;;
7703;SDS011;3894;49.700;10.770;2023-05-01T02:25:05;6.93;;;3.05;;
7703;SDS011;3894;49.700;10.770;2023-05-01T02:27:34;7.05;;;2.38;;
7703;SDS011;3894;49.700;10.770;2023-05-01T02:30:07;7.30;;;2.35;;
7703;SDS011;3894;49.700;10.770;2023-05-01T02:32:33;8.63;;;2.90;;
7703;SDS011;3894;49.700;10.770;2023-05-01T02:34:59;7.18;;;2.33;;
7703;SDS011;3894;49.700;10.770;2023-05-01T02:37:25;5.97;;;2.28;;
7703;SDS011;3894;49.700;10.770;2023-05-01T02:39:52;6.55;;;2.58;;
7703;SDS011;3894;49.700;10.770;2023-05-01T02:42:18;8.93;;;2.42;;
7703;SDS011;3894;49.700;10.770;2023-05-01T02:44:57;6.45;;;2.92;;
7703;SDS011;3894;49.700;10.770;2023-05-01T02:47:26;6.43;;;2.78;;
7703;SDS011;3894;49.700;10.770;2023-05-01T02:49:54;9.20;;;3.15;;
7703;SDS011;3894;49.700;10.770;2023-05-01T02:52:21;7.13;;;2.40;;
7703;SDS011;3894;49.700;10.770;2023-05-01T02:54:47;7.15;;;2.45;;
7703;SDS011;3894;49.700;10.770;2023-05-01T02:57:13;6.43;;;2.75;;
7703;SDS011;3894;49.700;10.770;2023-05-01T02:59:42;7.13;;;2.67;;
7703;SDS011;3894;49.700;10.770;2023-05-01T03:02:07;6.45;;;2.53;;
7703;SDS011;3894;49.700;10.770;2023-05-01T03:04:33;6.20;;;2.50;;
7703;SDS011;3894;49.700;10.770;2023-05-01T03:06:59;8.05;;;3.25;;
7703;SDS011;3894;49.700;10.770;2023-05-01T03:09:24;7.78;;;2.60;;
7703;SDS011;3894;49.700;10.770;2023-05-01T03:11:50;6.70;;;2.65;;
7703;SDS011;3894;49.700;10.770;2023-05-01T03:14:16;7.53;;;2.63;;
7703;SDS011;3894;49.700;10.770;2023-05-01T03:16:41;8.13;;;2.78;;
7703;SDS011;3894;49.700;10.770;2023-05-01T03:19:08;6.13;;;2.80;;
7703;SDS011;3894;49.700;10.770;2023-05-01T03:21:34;8.43;;;2.90;;
7703;SDS011;3894;49.700;10.770;2023-05-01T03:24:00;8.40;;;2.90;;
7703;SDS011;3894;49.700;10.770;2023-05-01T03:26:27;7.80;;;2.72;;
7703;SDS011;3894;49.700;10.770;2023-05-01T03:28:52;8.18;;;2.65;;
7703;SDS011;3894;49.700;10.770;2023-05-01T03:31:18;6.72;;;2.85;;
7703;SDS011;3894;49.700;10.770;2023-05-01T03:33:43;7.43;;;2.92;;
7703;SDS011;3894;49.700;10.770;2023-05-01T03:36:09;7.05;;;2.70;;
7703;SDS011;3894;49.700;10.770;2023-05-01T03:38:35;6.60;;;3.00;;
7703;SDS011;3894;49.700;10.770;2023-05-01T03:41:01;6.35;;;2.47;;
7703;SDS011;3894;49.700;10.770;2023-05-01T03:43:26;6.78;;;2.78;;
7703;SDS011;3894;49.700;10.770;2023-05-01T03:45:52;8.05;;;2.40;;
7703;SDS011;3894;49.700;10.770;2023-05-01T03:48:19;6.15;;;2.70;;
7703;SDS011;3894;49.700;10.770;2023-05-01T03:50:45;8.88;;;2.35;;
7703;SDS011;3894;49.700;10.770;2023-05-01T03:53:11;6.85;;;3.08;;
7703;SDS011;3894;49.700;10.770;2023-05-01T03:55:37;8.02;;;2.53;;
7703;SDS011;3894;49.700;10.770;2023-05-01T03:58:04;9.60;;;2.55;;
7703;SDS011;3894;49.700;10.770;2023-05-01T04:00:30;6.35;;;2.53;;
7703;SDS011;3894;49.700;10.770;2023-05-01T04:02:57;8.07;;;2.95;;
7703;SDS011;3894;49.700;10.770;2023-05-01T04:05:23;6.90;;;2.40;;
7703;SDS011;3894;49.700;10.770;2023-05-01T04:07:48;6.45;;;2.95;;
7703;SDS011;3894;49.700;10.770;2023-05-01T04:10:16;7.15;;;2.63;;
7703;SDS011;3894;49.700;10.770;2023-05-01T04:12:41;6.57;;;2.53;;
7703;SDS011;3894;49.700;10.770;2023-05-01T04:15:07;6.97;;;2.88;;
7703;SDS011;3894;49.700;10.770;2023-05-01T04:17:37;9.95;;;3.13;;
7703;SDS011;3894;49.700;10.770;2023-05-01T04:20:03;7.78;;;2.72;;
7703;SDS011;3894;49.700;10.770;2023-05-01T04:22:30;6.30;;;2.42;;
7703;SDS011;3894;49.700;10.770;2023-05-01T04:24:56;7.45;;;3.08;;
7703;SDS011;3894;49.700;10.770;2023-05-01T04:27:21;7.65;;;3.50;;
7703;SDS011;3894;49.700;10.770;2023-05-01T04:29:47;5.22;;;2.40;;
7703;SDS011;3894;49.700;10.770;2023-05-01T04:32:13;8.02;;;3.05;;
7703;SDS011;3894;49.700;10.770;2023-05-01T04:34:38;6.70;;;3.00;;
7703;SDS011;3894;49.700;10.770;2023-05-01T04:37:04;6.30;;;2.72;;
7703;SDS011;3894;49.700;10.770;2023-05-01T04:39:32;7.45;;;3.40;;
7703;SDS011;3894;49.700;10.770;2023-05-01T04:41:58;6.93;;;2.78;;
7703;SDS011;3894;49.700;10.770;2023-05-01T04:44:23;7.13;;;2.83;;
7703;SDS011;3894;49.700;10.770;2023-05-01T04:46:49;7.07;;;2.50;;
7703;SDS011;3894;49.700;10.770;2023-05-01T04:49:15;6.32;;;2.72;;
7703;SDS011;3894;49.700;10.770;2023-05-01T04:51:41;7.20;;;2.88;;
7703;SDS011;3894;49.700;10.770;2023-05-01T04:54:07;10.82;;;3.80;;
7703;SDS011;3894;49.700;10.770;2023-05-01T04:56:32;8.52;;;3.35;;
7703;SDS011;3894;49.700;10.770;2023-05-01T04:59:01;9.25;;;3.58;;
7703;SDS011;3894;49.700;10.770;2023-05-01T05:01:26;6.78;;;3.47;;
7703;SDS011;3894;49.700;10.770;2023-05-01T05:03:52;7.22;;;3.10;;
7703;SDS011;3894;49.700;10.770;2023-05-01T05:06:17;6.82;;;3.13;;
7703;SDS011;3894;49.700;10.770;2023-05-01T05:08:43;6.90;;;3.20;;
7703;SDS011;3894;49.700;10.770;2023-05-01T05:11:08;6.65;;;2.78;;
7703;SDS011;3894;49.700;10.770;2023-05-01T05:13:34;7.28;;;3.17;;
7703;SDS011;3894;49.700;10.770;2023-05-01T05:16:00;7.25;;;2.53;;
7703;SDS011;3894;49.700;10.770;2023-05-01T05:18:26;7.75;;;3.15;;
7703;SDS011;3894;49.700;10.770;2023-05-01T05:20:51;6.72;;;3.17;;
7703;SDS011;3894;49.700;10.770;2023-05-01T05:23:17;8.02;;;3.33;;
7703;SDS011;3894;49.700;10.770;2023-05-01T05:25:42;7.63;;;3.47;;
7703;SDS011;3894;49.700;10.770;2023-05-01T05:28:09;7.63;;;3.33;;
7703;SDS011;3894;49.700;10.770;2023-05-01T05:30:35;7.65;;;3.00;;
7703;SDS011;3894;49.700;10.770;2023-05-01T05:33:01;8.35;;;3.35;;
7703;SDS011;3894;49.700;10.770;2023-05-01T05:35:26;11.80;;;5.43;;
7703;SDS011;3894;49.700;10.770;2023-05-01T05:37:52;9.80;;;3.05;;
7703;SDS011;3894;49.700;10.770;2023-05-01T05:40:18;8.48;;;3.20;;
7703;SDS011;3894;49.700;10.770;2023-05-01T05:42:44;8.45;;;3.85;;
7703;SDS011;3894;49.700;10.770;2023-05-01T05:45:09;7.20;;;3.28;;
7703;SDS011;3894;49.700;10.770;2023-05-01T05:47:36;10.07;;;3.30;;
7703;SDS011;3894;49.700;10.770;2023-05-01T05:50:02;5.55;;;2.70;;
7703;SDS011;3894;49.700;10.770;2023-05-01T05:52:28;9.52;;;4.20;;
7703;SDS011;3894;49.700;10.770;2023-05-01T05:54:53;7.00;;;3.53;;
7703;SDS011;3894;49.700;10.770;2023-05-01T05:57:19;6.03;;;3.00;;
7703;SDS011;3894;49.700;10.770;2023-05-01T05:59:45;7.03;;;3.00;;
7703;SDS011;3894;49.700;10.770;2023-05-01T06:02:10;7.35;;;2.33;;
7703;SDS011;3894;49.700;10.770;2023-05-01T06:04:36;7.35;;;2.72;;
7703;SDS011;3894;49.700;10.770;2023-05-01T06:07:01;5.82;;;2.22;;
7703;SDS011;3894;49.700;10.770;2023-05-01T06:09:27;7.03;;;2.40;;
7703;SDS011;3894;49.700;10.770;2023-05-01T06:11:53;7.50;;;2.60;;
7703;SDS011;3894;49.700;10.770;2023-05-01T06:14:19;9.05;;;2.35;;
7703;SDS011;3894;49.700;10.770;2023-05-01T06:16:45;10.18;;;2.83;;
7703;SDS011;3894;49.700;10.770;2023-05-01T06:19:10;6.93;;;2.38;;
7703;SDS011;3894;49.700;10.770;2023-05-01T06:21:36;9.18;;;2.92;;
7703;SDS011;3894;49.700;10.770;2023-05-01T06:24:02;9.20;;;2.90;;
7703;SDS011;3894;49.700;10.770;2023-05-01T06:26:28;8.95;;;2.50;;
7703;SDS011;3894;49.700;10.770;2023-05-01T06:28:53;6.60;;;3.35;;
7703;SDS011;3894;49.700;10.770;2023-05-01T06:31:19;10.18;;;2.83;;
7703;SDS011;3894;49.700;10.770;2023-05-01T06:33:45;6.10;;;2.47;;
7703;SDS011;3894;49.700;10.770;2023-05-01T06:36:10;7.28;;;2.30;;
7703;SDS011;3894;49.700;10.770;2023-05-01T06:38:36;8.57;;;3.03;;
7703;SDS011;3894;49.700;10.770;2023-05-01T06:41:03;6.55;;;2.95;;
7703;SDS011;3894;49.700;10.770;2023-05-01T06:43:29;5.63;;;2.65;;
7703;SDS011;3894;49.700;10.770;2023-05-01T06:45:55;7.82;;;2.60;;
7703;SDS011;3894;49.700;10.770;2023-05-01T06:48:21;8.48;;;2.90;;
7703;SDS011;3894;49.700;10.770;2023-05-01T06:50:47;5.72;;;2.78;;
7703;SDS011;3894;49.700;10.770;2023-05-01T06:53:13;7.15;;;3.50;;
7703;SDS011;3894;49.700;10.770;2023-05-01T06:55:38;6.88;;;2.95;;
7703;SDS011;3894;49.700;10.770;2023-05-01T06:58:04;7.40;;;3.20;;
7703;SDS011;3894;49.700;10.770;2023-05-01T07:00:30;7.95;;;3.22;;
7703;SDS011;3894;49.700;10.770;2023-05-01T07:02:57;6.90;;;3.47;;
7703;SDS011;3894;49.700;10.770;2023-05-01T07:05:23;6.72;;;2.83;;
7703;SDS011;3894;49.700;10.770;2023-05-01T07:07:49;8.45;;;2.78;;
7703;SDS011;3894;49.700;10.770;2023-05-01T07:10:14;7.55;;;3.10;;
7703;SDS011;3894;49.700;10.770;2023-05-01T07:12:40;8.20;;;2.83;;
7703;SDS011;3894;49.700;10.770;2023-05-01T07:15:05;13.35;;;3.40;;
7703;SDS011;3894;49.700;10.770;2023-05-01T07:17:32;7.57;;;3.05;;
7703;SDS011;3894;49.700;10.770;2023-05-01T07:19:58;7.32;;;3.40;;
7703;SDS011;3894;49.700;10.770;2023-05-01T07:22:25;9.50;;;3.63;;
7703;SDS011;3894;49.700;10.770;2023-05-01T07:24:50;17.42;;;5.97;;
7703;SDS011;3894;49.700;10.770;2023-05-01T07:27:16;15.25;;;5.25;;
7703;SDS011;3894;49.700;10.770;2023-05-01T07:29:42;41.75;;;15.00;;
7703;SDS011;3894;49.700;10.770;2023-05-01T07:32:08;11.50;;;4.50;;
7703;SDS011;3894;49.700;10.770;2023-05-01T07:34:35;8.77;;;4.25;;
7703;SDS011;3894;49.700;10.770;2023-05-01T07:37:00;10.95;;;4.10;;
7703;SDS011;3894;49.700;10.770;2023-05-01T07:39:26;10.77;;;4.47;;
7703;SDS011;3894;49.700;10.770;2023-05-01T07:41:55;7.22;;;3.10;;
7703;SDS011;3894;49.700;10.770;2023-05-01T07:44:21;9.02;;;3.53;;
7703;SDS011;3894;49.700;10.770;2023-05-01T07:46:47;8.93;;;3.90;;
7703;SDS011;3894;49.700;10.770;2023-05-01T07:49:13;6.82;;;3.13;;
7703;SDS011;3894;49.700;10.770;2023-05-01T07:51:38;8.82;;;3.17;;
7703;SDS011;3894;49.700;10.770;2023-05-01T07:54:04;7.28;;;3.17;;
7703;SDS011;3894;49.700;10.770;2023-05-01T07:56:29;7.95;;;3.10;;
7703;SDS011;3894;49.700;10.770;2023-05-01T07:58:56;6.20;;;2.92;;
7703;SDS011;3894;49.700;10.770;2023-05-01T08:01:21;6.95;;;3.45;;
7703;SDS011;3894;49.700;10.770;2023-05-01T08:03:47;8.25;;;2.70;;
7703;SDS011;3894;49.700;10.770;2023-05-01T08:06:13;8.68;;;3.30;;
7703;SDS011;3894;49.700;10.770;2023-05-01T08:08:38;7.40;;;3.10;;
7703;SDS011;3894;49.700;10.770;2023-05-01T08:11:04;10.32;;;3.78;;
7703;SDS011;3894;49.700;10.770;2023-05-01T08:13:30;8.13;;;3.08;;
7703;SDS011;3894;49.700;10.770;2023-05-01T08:15:59;8.77;;;3.80;;
7703;SDS011;3894;49.700;10.770;2023-05-01T08:18:25;8.35;;;3.30;;
7703;SDS011;3894;49.700;10.770;2023-05-01T08:20:51;7.78;;;3.10;;
7703;SDS011;3894;49.700;10.770;2023-05-01T08:23:17;9.77;;;3.72;;
7703;SDS011;3894;49.700;10.770;2023-05-01T08:25:42;6.95;;;3.30;;
7703;SDS011;3894;49.700;10.770;2023-05-01T08:28:10;6.70;;;3.42;;
7703;SDS011;3894;49.700;10.770;2023-05-01T08:30:37;7.57;;;2.97;;
7703;SDS011;3894;49.700;10.770;2023-05-01T08:33:02;8.10;;;3.10;;
7703;SDS011;3894;49.700;10.770;2023-05-01T08:35:28;7.88;;;3.08;;
7703;SDS011;3894;49.700;10.770;2023-05-01T08:37:54;9.05;;;3.40;;
7703;SDS011;3894;49.700;10.770;2023-05-01T08:40:20;9.18;;;3.88;;
7703;SDS011;3894;49.700;10.770;2023-05-01T08:42:47;7.20;;;3.30;;
7703;SDS011;3894;49.700;10.770;2023-05-01T08:45:13;7.03;;;4.05;;
7703;SDS011;3894;49.700;10.770;2023-05-01T08:47:39;7.53;;;3.22;;
7703;SDS011;3894;49.700;10.770;2023-05-01T08:50:10;7.70;;;3.38;;
7703;SDS011;3894;49.700;10.770;2023-05-01T08:52:41;10.43;;;4.13;;
7703;SDS011;3894;49.700;10.770;2023-05-01T08:55:13;8.98;;;2.95;;
7703;SDS011;3894;49.700;10.770;2023-05-01T08:57:43;7.05;;;3.40;;
7703;SDS011;3894;49.700;10.770;2023-05-01T09:00:10;9.98;;;3.35;;
7703;SDS011;3894;49.700;10.770;2023-05-01T09:02:42;8.32;;;3.10;;
7703;SDS011;3894;49.700;10.770;2023-05-01T09:05:10;7.90;;;3.35;;
7703;SDS011;3894;49.700;10.770;2023-05-01T09:07:37;6.93;;;3.00;;
7703;SDS011;3894;49.700;10.770;2023-05-01T09:10:04;6.65;;;2.90;;
7703;SDS011;3894;49.700;10.770;2023-05-01T09:12:31;6.38;;;3.03;;
7703;SDS011;3894;49.700;10.770;2023-05-01T09:15:00;6.43;;;2.50;;
7703;SDS011;3894;49.700;10.770;2023-05-01T09:17:27;7.63;;;2.92;;
7703;SDS011;3894;49.700;10.770;2023-05-01T09:19:55;7.35;;;3.25;;
7703;SDS011;3894;49.700;10.770;2023-05-01T09:22:21;7.05;;;3.05;;
7703;SDS011;3894;49.700;10.770;2023-05-01T09:24:47;7.57;;;2.92;;
7703;SDS011;3894;49.700;10.770;2023-05-01T09:27:13;7.43;;;3.35;;
7703;SDS011;3894;49.700;10.770;2023-05-01T09:29:46;7.00;;;3.33;;
7703;SDS011;3894;49.700;10.770;2023-05-01T09:32:16;8.68;;;2.97;;
7703;SDS011;3894;49.700;10.770;2023-05-01T09:35:16;7.25;;;3.33;;
7703;SDS011;3894;49.700;10.770;2023-05-01T09:37:42;7.65;;;3.30;;
7703;SDS011;3894;49.700;10.770;2023-05-01T09:40:15;8.45;;;3.58;;
7703;SDS011;3894;49.700;10.770;2023-05-01T09:42:48;8.43;;;3.30;;
7703;SDS011;3894;49.700;10.770;2023-05-01T09:45:14;7.32;;;3.35;;
7703;SDS011;3894;49.700;10.770;2023-05-01T09:47:41;8.45;;;4.40;;
7703;SDS011;3894;49.700;10.770;2023-05-01T09:52:54;7.55;;;3.30;;
7703;SDS011;3894;49.700;10.770;2023-05-01T09:55:20;8.57;;;3.20;;
7703;SDS011;3894;49.700;10.770;2023-05-01T09:57:47;6.35;;;2.90;;
7703;SDS011;3894;49.700;10.770;2023-05-01T10:00:13;7.32;;;3.20;;
7703;SDS011;3894;49.700;10.770;2023-05-01T10:05:08;7.22;;;2.78;;
7703;SDS011;3894;49.700;10.770;2023-05-01T10:07:35;6.68;;;3.10;;
7703;SDS011;3894;49.700;10.770;2023-05-01T10:10:17;6.43;;;2.92;;
7703;SDS011;3894;49.700;10.770;2023-05-01T10:12:44;8.18;;;2.90;;
7703;SDS011;3894;49.700;10.770;2023-05-01T10:15:10;7.28;;;3.10;;
7703;SDS011;3894;49.700;10.770;2023-05-01T10:17:37;5.97;;;2.85;;
7703;SDS011;3894;49.700;10.770;2023-05-01T10:20:05;6.50;;;2.83;;
7703;SDS011;3894;49.700;10.770;2023-05-01T10:22:32;7.53;;;2.85;;
7703;SDS011;3894;49.700;10.770;2023-05-01T10:24:57;7.60;;;3.65;;
7703;SDS011;3894;49.700;10.770;2023-05-01T10:27:24;6.88;;;2.88;;
7703;SDS011;3894;49.700;10.770;2023-05-01T10:29:51;7.63;;;3.60;;
7703;SDS011;3894;49.700;10.770;2023-05-01T10:32:18;9.75;;;4.03;;
7703;SDS011;3894;49.700;10.770;2023-05-01T10:34:51;6.70;;;2.53;;
7703;SDS011;3894;49.700;10.770;2023-05-01T10:37:21;7.75;;;3.28;;
7703;SDS011;3894;49.700;10.770;2023-05-01T10:39:53;11.80;;;6.10;;
7703;SDS011;3894;49.700;10.770;2023-05-01T10:42:18;7.03;;;3.40;;
7703;SDS011;3894;49.700;10.770;2023-05-01T10:44:44;7.57;;;4.00;;
7703;SDS011;3894;49.700;10.770;2023-05-01T10:55:40;9.80;;;4.57;;
7703;SDS011;3894;49.700;10.770;2023-05-01T10:58:10;8.90;;;3.80;;
7703;SDS011;3894;49.700;10.770;2023-05-01T11:00:36;8.25;;;4.15;;
7703;SDS011;3894;49.700;10.770;2023-05-01T11:08:30;8.95;;;4.28;;
7703;SDS011;3894;49.700;10.770;2023-05-01T11:10:57;8.77;;;4.18;;
7703;SDS011;3894;49.700;10.770;2023-05-01T11:14:01;9.88;;;5.05;;
7703;SDS011;3894;49.700;10.770;2023-05-01T11:19:07;9.52;;;4.82;;
7703;SDS011;3894;49.700;10.770;2023-05-01T11:21:35;11.10;;;6.13;;
7703;SDS011;3894;49.700;10.770;2023-05-01T11:24:04;9.15;;;4.53;;
7703;SDS011;3894;49.700;10.770;2023-05-01T11:26:31;8.98;;;4.13;;
7703;SDS011;3894;49.700;10.770;2023-05-01T11:28:58;8.55;;;4.30;;
7703;SDS011;3894;49.700;10.770;2023-05-01T11:31:25;8.45;;;3.80;;
7703;SDS011;3894;49.700;10.770;2023-05-01T11:33:56;10.48;;;4.55;;
7703;SDS011;3894;49.700;10.770;2023-05-01T11:36:23;10.55;;;5.25;;
7703;SDS011;3894;49.700;10.770;2023-05-01T11:38:51;18.45;;;9.15;;
7703;SDS011;3894;49.700;10.770;2023-05-01T11:41:24;19.92;;;10.95;;
7703;SDS011;3894;49.700;10.770;2023-05-01T11:43:51;15.75;;;9.48;;
7703;SDS011;3894;49.700;10.770;2023-05-01T11:46:25;18.92;;;9.85;;
7703;SDS011;3894;49.700;10.770;2023-05-01T11:48:55;14.55;;;9.70;;
7703;SDS011;3894;49.700;10.770;2023-05-01T11:51:22;14.05;;;8.20;;
7703;SDS011;3894;49.700;10.770;2023-05-01T11:54:01;14.65;;;8.48;;
7703;SDS011;3894;49.700;10.770;2023-05-01T11:56:32;14.55;;;7.53;;
7703;SDS011;3894;49.700;10.770;2023-05-01T11:58:59;15.20;;;7.95;;
7703;SDS011;3894;49.700;10.770;2023-05-01T12:01:43;14.95;;;7.03;;
7703;SDS011;3894;49.700;10.770;2023-05-01T12:04:10;16.13;;;9.38;;
7703;SDS011;3894;49.700;10.770;2023-05-01T12:06:41;13.60;;;8.10;;
7703;SDS011;3894;49.700;10.770;2023-05-01T12:09:09;11.70;;;6.30;;
7703;SDS011;3894;49.700;10.770;2023-05-01T12:19:01;15.20;;;8.65;;
7703;SDS011;3894;49.700;10.770;2023-05-01T12:21:28;16.55;;;9.90;;
7703;SDS011;3894;49.700;10.770;2023-05-01T12:23:56;15.25;;;8.20;;
7703;SDS011;3894;49.700;10.770;2023-05-01T12:26:31;15.05;;;8.20;;
7703;SDS011;3894;49.700;10.770;2023-05-01T12:31:36;15.43;;;10.35;;
7703;SDS011;3894;49.700;10.770;2023-05-01T12:34:11;12.77;;;7.97;;
7703;SDS011;3894;49.700;10.770;2023-05-01T12:36:36;19.60;;;12.30;;
7703;SDS011;3894;49.700;10.770;2023-05-01T12:39:04;18.60;;;13.02;;
7703;SDS011;3894;49.700;10.770;2023-05-01T12:41:39;17.63;;;11.68;;
7703;SDS011;3894;49.700;10.770;2023-05-01T12:44:23;15.15;;;8.48;;
7703;SDS011;3894;49.700;10.770;2023-05-01T12:47:02;14.55;;;7.28;;
7703;SDS011;3894;49.700;10.770;2023-05-01T12:49:29;15.38;;;7.45;;
7703;SDS011;3894;49.700;10.770;2023-05-01T12:51:57;13.68;;;6.50;;
7703;SDS011;3894;49.700;10.770;2023-05-01T12:57:07;15.60;;;7.93;;
7703;SDS011;3894;49.700;10.770;2023-05-01T12:59:38;14.63;;;7.30;;
7703;SDS011;3894;49.700;10.770;2023-05-01T13:02:06;17.77;;;8.13;;
7703;SDS011;3894;49.700;10.770;2023-05-01T13:04:32;12.65;;;8.30;;
7703;SDS011;3894;49.700;10.770;2023-05-01T13:06:58;13.73;;;7.80;;
7703;SDS011;3894;49.700;10.770;2023-05-01T13:09:24;16.10;;;8.55;;
7703;SDS011;3894;49.700;10.770;2023-05-01T13:12:01;13.73;;;6.95;;
7703;SDS011;3894;49.700;10.770;2023-05-01T13:14:34;13.68;;;8.00;;
7703;SDS011;3894;49.700;10.770;2023-05-01T13:17:02;13.57;;;7.28;;
7703;SDS011;3894;49.700;10.770;2023-05-01T13:19:28;12.82;;;7.45;;
7703;SDS011;3894;49.700;10.770;2023-05-01T13:21:55;17.70;;;9.23;;
7703;SDS011;3894;49.700;10.770;2023-05-01T13:24:22;11.32;;;6.63;;
7703;SDS011;3894;49.700;10.770;2023-05-01T13:27:08;12.68;;;6.90;;
7703;SDS011;3894;49.700;10.770;2023-05-01T13:29:37;13.82;;;6.35;;
7703;SDS011;3894;49.700;10.770;2023-05-01T13:32:04;16.65;;;7.22;;
7703;SDS011;3894;49.700;10.770;2023-05-01T13:34:31;12.15;;;5.60;;
7703;SDS011;3894;49.700;10.770;2023-05-01T13:37:07;11.73;;;5.82;;
7703;SDS011;3894;49.700;10.770;2023-05-01T13:39:37;12.02;;;5.53;;
7703;SDS011;3894;49.700;10.770;2023-05-01T13:42:17;9.88;;;5.78;;
7703;SDS011;3894;49.700;10.770;2023-05-01T13:44:52;16.17;;;7.63;;
7703;SDS011;3894;49.700;10.770;2023-05-01T13:47:20;22.48;;;11.55;;
7703;SDS011;3894;49.700;10.770;2023-05-01T13:49:50;11.27;;;6.32;;
7703;SDS011;3894;49.700;10.770;2023-05-01T13:52:16;24.65;;;12.35;;
7703;SDS011;3894;49.700;10.770;2023-05-01T13:54:43;13.70;;;6.40;;
7703;SDS011;3894;49.700;10.770;2023-05-01T13:57:09;14.63;;;6.95;;
7703;SDS011;3894;49.700;10.770;2023-05-01T13:59:38;11.35;;;5.65;;
7703;SDS011;3894;49.700;10.770;2023-05-01T14:02:10;9.95;;;4.82;;
7703;SDS011;3894;49.700;10.770;2023-05-01T14:04:44;10.23;;;6.35;;
7703;SDS011;3894;49.700;10.770;2023-05-01T14:07:11;10.23;;;5.60;;
7703;SDS011;3894;49.700;10.770;2023-05-01T14:09:42;13.68;;;6.15;;
7703;SDS011;3894;49.700;10.770;2023-05-01T14:12:08;11.18;;;5.95;;
7703;SDS011;3894;49.700;10.770;2023-05-01T14:14:35;10.77;;;5.70;;
7703;SDS011;3894;49.700;10.770;2023-05-01T14:17:02;15.20;;;6.72;;
7703;SDS011;3894;49.700;10.770;2023-05-01T14:19:28;12.00;;;6.13;;
7703;SDS011;3894;49.700;10.770;2023-05-01T14:21:54;10.82;;;5.88;;
7703;SDS011;3894;49.700;10.770;2023-05-01T14:24:20;13.05;;;6.00;;
7703;SDS011;3894;49.700;10.770;2023-05-01T14:26:46;10.77;;;5.90;;
7703;SDS011;3894;49.700;10.770;2023-05-01T14:29:24;11.98;;;6.85;;
7703;SDS011;3894;49.700;10.770;2023-05-01T14:31:53;11.82;;;5.93;;
7703;SDS011;3894;49.700;10.770;2023-05-01T14:34:20;10.18;;;5.32;;
7703;SDS011;3894;49.700;10.770;2023-05-01T14:36:47;10.85;;;5.40;;
7703;SDS011;3894;49.700;10.770;2023-05-01T14:39:13;10.32;;;5.85;;
7703;SDS011;3894;49.700;10.770;2023-05-01T14:41:42;12.02;;;6.82;;
7703;SDS011;3894;49.700;10.770;2023-05-01T14:44:17;9.77;;;6.05;;
7703;SDS011;3894;49.700;10.770;2023-05-01T14:46:46;12.32;;;6.63;;
7703;SDS011;3894;49.700;10.770;2023-05-01T14:49:17;11.40;;;5.95;;
7703;SDS011;3894;49.700;10.770;2023-05-01T14:51:44;12.25;;;6.25;;
7703;SDS011;3894;49.700;10.770;2023-05-01T14:54:10;11.27;;;6.38;;
7703;SDS011;3894;49.700;10.770;2023-05-01T14:56:37;9.02;;;5.25;;
7703;SDS011;3894;49.700;10.770;2023-05-01T14:59:04;11.75;;;6.55;;
7703;SDS011;3894;49.700;10.770;2023-05-01T15:01:29;13.93;;;6.03;;
7703;SDS011;3894;49.700;10.770;2023-05-01T15:03:55;9.20;;;5.22;;
7703;SDS011;3894;49.700;10.770;2023-05-01T15:06:20;10.13;;;5.30;;
7703;SDS011;3894;49.700;10.770;2023-05-01T15:08:48;12.13;;;5.63;;
7703;SDS011;3894;49.700;10.770;2023-05-01T15:11:14;12.13;;;5.13;;
7703;SDS011;3894;49.700;10.770;2023-05-01T15:16:08;11.77;;;5.38;;
7703;SDS011;3894;49.700;10.770;2023-05-01T15:18:34;9.40;;;4.88;;
7703;SDS011;3894;49.700;10.770;2023-05-01T15:21:01;9.65;;;4.35;;
7703;SDS011;3894;49.700;10.770;2023-05-01T15:23:26;7.95;;;4.10;;
7703;SDS011;3894;49.700;10.770;2023-05-01T15:25:52;9.52;;;4.70;;
7703;SDS011;3894;49.700;10.770;2023-05-01T15:28:18;9.95;;;4.25;;
7703;SDS011;3894;49.700;10.770;2023-05-01T15:30:44;8.77;;;4.35;;
7703;SDS011;3894;49.700;10.770;2023-05-01T15:33:11;9.00;;;4.57;;
7703;SDS011;3894;49.700;10.770;2023-05-01T15:35:37;9.50;;;4.55;;
7703;SDS011;3894;49.700;10.770;2023-05-01T15:38:03;8.15;;;3.53;;
7703;SDS011;3894;49.700;10.770;2023-05-01T15:40:28;9.15;;;3.97;;
7703;SDS011;3894;49.700;10.770;2023-05-01T15:42:54;8.35;;;4.10;;
7703;SDS011;3894;49.700;10.770;2023-05-01T15:45:20;7.47;;;3.70;;
7703;SDS011;3894;49.700;10.770;2023-05-01T15:47:46;9.20;;;3.80;;
7703;SDS011;3894;49.700;10.770;2023-05-01T15:50:11;8.30;;;3.85;;
7703;SDS011;3894;49.700;10.770;2023-05-01T15:52:37;8.45;;;3.85;;
7703;SDS011;3894;49.700;10.770;2023-05-01T15:55:04;8.18;;;4.30;;